LTAJ

Gaziantep International Airport

Gaziantep, Turkey
METAR LTAJ 202320Z 25002KT CAVOK 24/16 Q1008 NOSIG
Observed Flight Rules
Aug-20 @ 23:20 UTC (45 minutes ago) Visual Flight Rules
Wind Visibility Clouds
250° at 2 knots 10,000+ meters
  • Clear skies
Temperatures Readings
Current 24°C / 75°F
Dewpoint 16°C / 61°F
Humidity 61%
Altimeter 29.76" Hg
Pressure 1008 hPa
Elevation 855
METAR LTAJ 202320Z 25002KT CAVOK 24/16 Q1008 NOSIG
Observed Flight Rules
Aug-20 @ 23:20 UTC
(45 minutes ago)
VFR
Wind Visibility
250° at 2 knots 10,000+ meters
Clouds
  • Clear skies
Temperature Dewpoint
24°C / 75°F 16°C / 61°F
Humidity Altimeter Pressure
61% 29.76" Hg 1008 hPa